PWSweather.com
Personal Weather Stations
Station Observations
SELKIRK1
Ontario, Selkirk, ON N0A 1P0

OntarioSelkirk, ON N0A 1P0

Lat: 42.8083652, Lon: -79.94971040000001

Elevation: 583

Station Type: Acurite 5 in 1

http://gavinsurf.com

Latest ConditionsUpdated 8:40:00 PM EDT Wednesday, Aug 15, 2018
Currently Today's Max Today's Min Today's Average
Temperature 76.5°F24.7°C 83.5°F28.6°C 69.5°F20.8°C 76.3°F24.6°C
Dew Point 76.2°F24.6°C 80.1°F26.7°C 69.2°F20.7°C 74.8°F23.8°C
Winds 2.3 mph N3.7 kmh N 11.5 mph -18.5 kmh - - 3.8 mph 6.1 kmh
Wind Gusts 2.3 mph3.7 kmh 12.7 mph20.4 kmh - -
Humidity 99% 99% 87% 95%
Pressure 29.36 in994.2 mb 31.85 in1078.6 mb 28.49 in964.8 mb -
Hour Temp Dew Point Humidity Winds Wind Gusts Pressure Precip Precip Rate Daily Precip Total
08:40 PM 76.5°F24.7°C 76.2°F24.6°C 99% 2.3 mph N3.7 kmh N 2.3 mph3.7 kmh 29.36 in994.2 mb - 0.00 in0.0 mm 0.00 in0.0 mm
08:35 PM 76.8°F24.9°C 76.5°F24.7°C 99% 2.3 mph W3.7 kmh W 2.3 mph3.7 kmh 29.26 in990.9 mb - 0.00 in0.0 mm 0.00 in0.0 mm
08:30 PM 77.1°F25.1°C 76.8°F24.9°C 99% 2.3 mph W3.7 kmh W 3.5 mph5.6 kmh 29.26 in990.9 mb - 0.00 in0.0 mm 0.00 in0.0 mm
08:25 PM 77.4°F25.2°C 77.0°F25.0°C 99% 2.3 mph W3.7 kmh W 3.5 mph5.6 kmh 29.23 in989.8 mb - 0.00 in0.0 mm 0.00 in0.0 mm
08:20 PM 77.5°F25.3°C 77.2°F25.1°C 99% 3.5 mph WSW5.6 kmh WSW 4.6 mph7.4 kmh 29.23 in989.8 mb - 0.00 in0.0 mm 0.00 in0.0 mm
08:15 PM 77.6°F25.3°C 77.3°F25.2°C 99% 3.5 mph WSW5.6 kmh WSW 4.6 mph7.4 kmh 29.23 in989.8 mb - 0.00 in0.0 mm 0.00 in0.0 mm
08:10 PM 77.7°F25.4°C 77.4°F25.2°C 99% 4.6 mph WSW7.4 kmh WSW 5.8 mph9.3 kmh 29.16 in987.5 mb - 0.00 in0.0 mm 0.00 in0.0 mm
08:00 PM 77.9°F25.5°C 77.6°F25.3°C 99% 2.3 mph WSW3.7 kmh WSW 4.6 mph7.4 kmh 29.09 in985.1 mb - 0.00 in0.0 mm 0.00 in0.0 mm
07:55 PM 78.1°F25.6°C 77.5°F25.3°C 98% 3.5 mph W5.6 kmh W 3.5 mph5.6 kmh 29.09 in985.1 mb - 0.00 in0.0 mm 0.00 in0.0 mm
07:50 PM 78.3°F25.7°C 77.7°F25.4°C 98% 2.3 mph W3.7 kmh W 3.5 mph5.6 kmh 29.02 in982.7 mb - 0.00 in0.0 mm 0.00 in0.0 mm
07:45 PM 78.3°F25.7°C 77.7°F25.4°C 98% 4.6 mph W7.4 kmh W 5.8 mph9.3 kmh 28.99 in981.7 mb - 0.00 in0.0 mm 0.00 in0.0 mm
07:40 PM 78.3°F25.7°C 77.7°F25.4°C 98% 4.6 mph W7.4 kmh W 6.9 mph11.1 kmh 28.99 in981.7 mb - 0.00 in0.0 mm 0.00 in0.0 mm
07:35 PM 78.5°F25.8°C 77.9°F25.5°C 98% 4.6 mph W7.4 kmh W 6.9 mph11.1 kmh 28.90 in978.7 mb - 0.00 in0.0 mm 0.00 in0.0 mm
07:30 PM 78.6°F25.9°C 78.0°F25.6°C 98% 3.5 mph WSW5.6 kmh WSW 5.8 mph9.3 kmh 28.90 in978.7 mb - 0.00 in0.0 mm 0.00 in0.0 mm
07:25 PM 78.6°F25.9°C 78.0°F25.6°C 98% 3.5 mph WSW5.6 kmh WSW 4.6 mph7.4 kmh 28.84 in976.6 mb - 0.00 in0.0 mm 0.00 in0.0 mm
07:20 PM 78.6°F25.9°C 78.0°F25.6°C 98% 4.6 mph SW7.4 kmh SW 6.9 mph11.1 kmh 28.84 in976.6 mb - 0.00 in0.0 mm 0.00 in0.0 mm
07:15 PM 78.6°F25.9°C 78.0°F25.6°C 98% 4.6 mph W7.4 kmh W 12.7 mph20.4 kmh 28.84 in976.6 mb - 0.00 in0.0 mm 0.00 in0.0 mm
07:10 PM 78.8°F26.0°C 78.2°F25.7°C 98% 3.5 mph W5.6 kmh W 6.9 mph11.1 kmh 28.77 in974.3 mb - 0.00 in0.0 mm 0.00 in0.0 mm
07:00 PM 79.0°F26.1°C 78.1°F25.6°C 97% 5.8 mph W9.3 kmh W 6.9 mph11.1 kmh 28.68 in971.2 mb - 0.00 in0.0 mm 0.00 in0.0 mm
06:55 PM 79.0°F26.1°C 78.4°F25.8°C 98% 5.8 mph WSW9.3 kmh WSW 6.9 mph11.1 kmh 28.68 in971.2 mb - 0.00 in0.0 mm 0.00 in0.0 mm
06:50 PM 79.0°F26.1°C 78.4°F25.8°C 98% 4.6 mph WSW7.4 kmh WSW 5.8 mph9.3 kmh 28.66 in970.5 mb - 0.00 in0.0 mm 0.00 in0.0 mm
06:45 PM 79.0°F26.1°C 78.7°F25.9°C 99% 5.8 mph WSW9.3 kmh WSW 9.2 mph14.8 kmh 28.64 in969.9 mb - 0.00 in0.0 mm 0.00 in0.0 mm
06:40 PM 79.2°F26.2°C 78.9°F26.1°C 99% 5.8 mph WSW9.3 kmh WSW 6.9 mph11.1 kmh 28.64 in969.9 mb - 0.00 in0.0 mm 0.00 in0.0 mm
06:35 PM 79.4°F26.3°C 78.8°F26.0°C 98% 5.8 mph SW9.3 kmh SW 5.8 mph9.3 kmh 28.58 in967.8 mb - 0.00 in0.0 mm 0.00 in0.0 mm
06:30 PM 79.4°F26.3°C 79.1°F26.2°C 99% 4.6 mph WSW7.4 kmh WSW 6.9 mph11.1 kmh 28.58 in967.8 mb - 0.00 in0.0 mm 0.00 in0.0 mm
06:25 PM 79.2°F26.2°C 78.9°F26.1°C 99% 5.8 mph SW9.3 kmh SW 5.8 mph9.3 kmh 28.54 in966.5 mb - 0.00 in0.0 mm 0.00 in0.0 mm
06:20 PM 79.4°F26.3°C 78.8°F26.0°C 98% 5.8 mph WSW9.3 kmh WSW 5.8 mph9.3 kmh 28.54 in966.5 mb - 0.00 in0.0 mm 0.00 in0.0 mm
06:15 PM 79.9°F26.6°C 79.0°F26.1°C 97% 5.8 mph WSW9.3 kmh WSW 5.8 mph9.3 kmh 28.54 in966.5 mb - 0.00 in0.0 mm 0.00 in0.0 mm
06:10 PM 79.9°F26.6°C 79.0°F26.1°C 97% 4.6 mph WSW7.4 kmh WSW 4.6 mph7.4 kmh 28.49 in964.8 mb - 0.00 in0.0 mm 0.00 in0.0 mm
06:00 PM 80.3°F26.8°C 79.1°F26.2°C 96% 6.9 mph SW11.1 kmh SW 5.8 mph9.3 kmh 28.51 in965.5 mb - 0.00 in0.0 mm 0.00 in0.0 mm
05:55 PM 80.8°F27.1°C 79.2°F26.2°C 95% 5.8 mph WSW9.3 kmh WSW 10.4 mph16.7 kmh 28.51 in965.5 mb - 0.00 in0.0 mm 0.00 in0.0 mm
05:50 PM 80.4°F26.9°C 78.8°F26.0°C 95% 5.8 mph WSW9.3 kmh WSW 8.1 mph13.0 kmh 28.51 in965.5 mb - 0.00 in0.0 mm 0.00 in0.0 mm
05:45 PM 80.9°F27.2°C 79.0°F26.1°C 94% 5.8 mph WSW9.3 kmh WSW 6.9 mph11.1 kmh 28.52 in965.8 mb - 0.00 in0.0 mm 0.00 in0.0 mm
05:40 PM 80.8°F27.1°C 78.9°F26.1°C 94% 5.8 mph SW9.3 kmh SW 5.8 mph9.3 kmh 28.52 in965.8 mb - 0.00 in0.0 mm 0.00 in0.0 mm
05:35 PM 80.8°F27.1°C 78.6°F25.9°C 93% 6.9 mph WSW11.1 kmh WSW 5.8 mph9.3 kmh 28.52 in965.8 mb - 0.00 in0.0 mm 0.00 in0.0 mm
05:30 PM 80.8°F27.1°C 78.9°F26.1°C 94% 5.8 mph WSW9.3 kmh WSW 8.1 mph13.0 kmh 28.52 in965.8 mb - 0.00 in0.0 mm 0.00 in0.0 mm
05:25 PM 80.6°F27.0°C 78.7°F25.9°C 94% 5.8 mph SW9.3 kmh SW 5.8 mph9.3 kmh 28.56 in967.2 mb - 0.00 in0.0 mm 0.00 in0.0 mm
05:20 PM 80.6°F27.0°C 78.7°F25.9°C 94% 5.8 mph SW9.3 kmh SW 8.1 mph13.0 kmh 28.57 in967.5 mb - 0.00 in0.0 mm 0.00 in0.0 mm
05:15 PM 81.0°F27.2°C 78.8°F26.0°C 93% 5.8 mph WSW9.3 kmh WSW 6.9 mph11.1 kmh 28.57 in967.5 mb - 0.00 in0.0 mm 0.00 in0.0 mm
05:10 PM 81.2°F27.3°C 79.3°F26.3°C 94% 5.8 mph SW9.3 kmh SW 6.9 mph11.1 kmh 28.59 in968.2 mb - 0.00 in0.0 mm 0.00 in0.0 mm
05:00 PM 81.0°F27.2°C 79.1°F26.2°C 94% 5.8 mph SW9.3 kmh SW 6.9 mph11.1 kmh 28.61 in968.8 mb - 0.00 in0.0 mm 0.00 in0.0 mm
04:55 PM 80.6°F27.0°C 79.1°F26.2°C 95% 4.6 mph SW7.4 kmh SW 5.8 mph9.3 kmh 28.61 in968.8 mb - 0.00 in0.0 mm 0.00 in0.0 mm
04:50 PM 80.3°F26.8°C 78.8°F26.0°C 95% 5.8 mph SW9.3 kmh SW 6.9 mph11.1 kmh 28.61 in968.8 mb - 0.00 in0.0 mm 0.00 in0.0 mm
04:45 PM 80.6°F27.0°C 78.8°F26.0°C 94% 5.8 mph SW9.3 kmh SW 5.8 mph9.3 kmh 28.60 in968.5 mb - 0.00 in0.0 mm 0.00 in0.0 mm
04:40 PM 80.8°F27.1°C 78.9°F26.1°C 94% 5.8 mph SW9.3 kmh SW 5.8 mph9.3 kmh 28.60 in968.5 mb - 0.00 in0.0 mm 0.00 in0.0 mm
04:35 PM 80.6°F27.0°C 78.4°F25.8°C 93% 8.1 mph SW13.0 kmh SW 8.1 mph13.0 kmh 28.63 in969.5 mb - 0.00 in0.0 mm 0.00 in0.0 mm
04:30 PM 81.4°F27.4°C 78.5°F25.8°C 91% 6.9 mph SW11.1 kmh SW 6.9 mph11.1 kmh 28.63 in969.5 mb - 0.00 in0.0 mm 0.00 in0.0 mm
04:25 PM 81.5°F27.5°C 78.6°F25.9°C 91% 6.9 mph S11.1 kmh S 10.4 mph16.7 kmh 28.69 in971.6 mb - 0.00 in0.0 mm 0.00 in0.0 mm
04:20 PM 81.7°F27.6°C 78.5°F25.8°C 90% 5.8 mph SW9.3 kmh SW 6.9 mph11.1 kmh 28.70 in971.9 mb - 0.00 in0.0 mm 0.00 in0.0 mm
04:15 PM 82.0°F27.8°C 78.8°F26.0°C 90% 5.8 mph SW9.3 kmh SW 5.8 mph9.3 kmh 28.70 in971.9 mb - 0.00 in0.0 mm 0.00 in0.0 mm
04:10 PM 82.6°F28.1°C 79.0°F26.1°C 89% 4.6 mph WSW7.4 kmh WSW 6.9 mph11.1 kmh 28.80 in975.3 mb - 0.00 in0.0 mm 0.00 in0.0 mm
04:00 PM 81.2°F27.3°C 78.7°F25.9°C 92% 5.8 mph SW9.3 kmh SW 6.9 mph11.1 kmh 28.79 in974.9 mb - 0.00 in0.0 mm 0.00 in0.0 mm
03:55 PM 80.6°F27.0°C 78.1°F25.6°C 92% 5.8 mph SW9.3 kmh SW 6.9 mph11.1 kmh 28.79 in974.9 mb - 0.00 in0.0 mm 0.00 in0.0 mm
03:50 PM 81.6°F27.6°C 78.8°F26.0°C 91% 8.1 mph SW13.0 kmh SW 10.4 mph16.7 kmh 28.77 in974.3 mb - 0.00 in0.0 mm 0.00 in0.0 mm
03:45 PM 81.2°F27.3°C 78.7°F25.9°C 92% 6.9 mph WSW11.1 kmh WSW 8.1 mph13.0 kmh 28.74 in973.2 mb - 0.00 in0.0 mm 0.00 in0.0 mm
03:40 PM 81.2°F27.3°C 79.0°F26.1°C 93% 8.1 mph SW13.0 kmh SW 10.4 mph16.7 kmh 28.74 in973.2 mb - 0.00 in0.0 mm 0.00 in0.0 mm
03:35 PM 81.2°F27.3°C 78.6°F25.9°C 92% 6.9 mph SW11.1 kmh SW 11.5 mph18.5 kmh 28.81 in975.6 mb - 0.00 in0.0 mm 0.00 in0.0 mm
03:30 PM 81.5°F27.5°C 78.6°F25.9°C 91% 6.9 mph SW11.1 kmh SW 5.8 mph9.3 kmh 28.81 in975.6 mb - 0.00 in0.0 mm 0.00 in0.0 mm
03:25 PM 81.9°F27.7°C 79.0°F26.1°C 91% 6.9 mph SW11.1 kmh SW 8.1 mph13.0 kmh 28.92 in979.3 mb - 0.00 in0.0 mm 0.00 in0.0 mm
03:20 PM 82.1°F27.8°C 79.2°F26.2°C 91% 6.9 mph WSW11.1 kmh WSW 8.1 mph13.0 kmh 28.93 in979.7 mb - 0.00 in0.0 mm 0.00 in0.0 mm
03:15 PM 81.8°F27.7°C 78.9°F26.1°C 91% 9.2 mph SW14.8 kmh SW 10.4 mph16.7 kmh 28.93 in979.7 mb - 0.00 in0.0 mm 0.00 in0.0 mm
03:10 PM 82.1°F27.8°C 78.9°F26.1°C 90% 10.4 mph WSW16.7 kmh WSW 10.4 mph16.7 kmh 28.98 in981.4 mb - 0.00 in0.0 mm 0.00 in0.0 mm
03:00 PM 81.3°F27.4°C 78.4°F25.8°C 91% 10.4 mph SW16.7 kmh SW 11.5 mph18.5 kmh 28.97 in981.0 mb - 0.00 in0.0 mm 0.00 in0.0 mm
02:55 PM 81.3°F27.4°C 78.4°F25.8°C 91% 10.4 mph SW16.7 kmh SW 12.7 mph20.4 kmh 28.97 in981.0 mb - 0.00 in0.0 mm 0.00 in0.0 mm
02:50 PM 81.7°F27.6°C 78.5°F25.8°C 90% 10.4 mph SW16.7 kmh SW 11.5 mph18.5 kmh 28.96 in980.7 mb - 0.00 in0.0 mm 0.00 in0.0 mm
02:45 PM 81.5°F27.5°C 78.6°F25.9°C 91% 11.5 mph SW18.5 kmh SW 12.7 mph20.4 kmh 28.95 in980.4 mb - 0.00 in0.0 mm 0.00 in0.0 mm
02:40 PM 81.3°F27.4°C 78.4°F25.8°C 91% 10.4 mph SW16.7 kmh SW 10.4 mph16.7 kmh 28.95 in980.4 mb - 0.00 in0.0 mm 0.00 in0.0 mm
02:35 PM 81.0°F27.2°C 78.5°F25.8°C 92% 9.2 mph SSW14.8 kmh SSW 11.5 mph18.5 kmh 28.82 in976.0 mb - 0.00 in0.0 mm 0.00 in0.0 mm
02:30 PM 81.0°F27.2°C 78.4°F25.8°C 92% 8.1 mph SW13.0 kmh SW 9.2 mph14.8 kmh 28.82 in976.0 mb - 0.00 in0.0 mm 0.00 in0.0 mm
02:25 PM 81.2°F27.3°C 78.6°F25.9°C 92% 11.5 mph SW18.5 kmh SW 11.5 mph18.5 kmh 28.77 in974.3 mb - 0.00 in0.0 mm 0.00 in0.0 mm
02:20 PM 81.9°F27.7°C 79.3°F26.3°C 92% 10.4 mph SW16.7 kmh SW 12.7 mph20.4 kmh 28.76 in973.9 mb - 0.00 in0.0 mm 0.00 in0.0 mm
02:15 PM 83.0°F28.3°C 79.7°F26.5°C 90% 11.5 mph SW18.5 kmh SW 12.7 mph20.4 kmh 28.76 in973.9 mb - 0.00 in0.0 mm 0.00 in0.0 mm
02:10 PM 83.4°F28.6°C 80.1°F26.7°C 90% 10.4 mph SW16.7 kmh SW 12.7 mph20.4 kmh 28.88 in978.0 mb - 0.00 in0.0 mm 0.00 in0.0 mm
02:00 PM 83.1°F28.4°C 79.5°F26.4°C 89% 8.1 mph SW13.0 kmh SW 8.1 mph13.0 kmh 29.00 in982.1 mb - 0.00 in0.0 mm 0.00 in0.0 mm
01:55 PM 83.3°F28.5°C 79.4°F26.3°C 88% 6.9 mph SW11.1 kmh SW 6.9 mph11.1 kmh 29.00 in982.1 mb - 0.00 in0.0 mm 0.00 in0.0 mm
01:50 PM 83.5°F28.6°C 79.2°F26.2°C 87% 8.1 mph SW13.0 kmh SW 8.1 mph13.0 kmh 29.07 in984.4 mb - 0.00 in0.0 mm 0.00 in0.0 mm
01:45 PM 83.3°F28.5°C 79.4°F26.3°C 88% 6.9 mph SW11.1 kmh SW 8.1 mph13.0 kmh 29.20 in988.8 mb - 0.00 in0.0 mm 0.00 in0.0 mm
01:40 PM 82.7°F28.2°C 79.8°F26.6°C 91% 5.8 mph SW9.3 kmh SW 6.9 mph11.1 kmh 29.20 in988.8 mb - 0.00 in0.0 mm 0.00 in0.0 mm
01:35 PM 82.6°F28.1°C 79.7°F26.5°C 91% 5.8 mph WSW9.3 kmh WSW 5.8 mph9.3 kmh 29.33 in993.2 mb - 0.00 in0.0 mm 0.00 in0.0 mm
01:30 PM 82.2°F27.9°C 79.3°F26.3°C 91% 5.8 mph SW9.3 kmh SW 5.8 mph9.3 kmh 29.33 in993.2 mb - 0.00 in0.0 mm 0.00 in0.0 mm
01:25 PM 81.7°F27.6°C 79.1°F26.2°C 92% 4.6 mph WSW7.4 kmh WSW 5.8 mph9.3 kmh 29.45 in997.3 mb - 0.00 in0.0 mm 0.00 in0.0 mm
01:20 PM 82.1°F27.8°C 79.2°F26.2°C 91% 5.8 mph SW9.3 kmh SW 5.8 mph9.3 kmh 29.46 in997.6 mb - 0.00 in0.0 mm 0.00 in0.0 mm
01:15 PM 82.4°F28.0°C 79.1°F26.2°C 90% 6.9 mph SW11.1 kmh SW 8.1 mph13.0 kmh 29.46 in997.6 mb - 0.00 in0.0 mm 0.00 in0.0 mm
01:10 PM 82.5°F28.1°C 79.3°F26.3°C 90% 6.9 mph SW11.1 kmh SW 9.2 mph14.8 kmh 29.67 in1004.7 mb - 0.00 in0.0 mm 0.00 in0.0 mm
01:00 PM 82.3°F27.9°C 79.1°F26.2°C 90% 6.9 mph SW11.1 kmh SW 6.9 mph11.1 kmh 29.80 in1009.1 mb - 0.00 in0.0 mm 0.00 in0.0 mm
12:55 PM 81.9°F27.7°C 78.7°F25.9°C 90% 6.9 mph SW11.1 kmh SW 6.9 mph11.1 kmh 29.80 in1009.1 mb - 0.00 in0.0 mm 0.00 in0.0 mm
12:50 PM 81.3°F27.4°C 78.4°F25.8°C 91% 6.9 mph WSW11.1 kmh WSW 6.9 mph11.1 kmh 29.86 in1011.2 mb - 0.00 in0.0 mm 0.00 in0.0 mm
12:45 PM 81.6°F27.6°C 78.4°F25.8°C 90% 5.8 mph WSW9.3 kmh WSW 5.8 mph9.3 kmh 29.97 in1014.9 mb - 0.00 in0.0 mm 0.00 in0.0 mm
12:40 PM 82.6°F28.1°C 78.7°F25.9°C 88% 4.6 mph WSW7.4 kmh WSW 4.6 mph7.4 kmh 29.97 in1014.9 mb - 0.00 in0.0 mm 0.00 in0.0 mm
12:35 PM 82.1°F27.8°C 78.6°F25.9°C 89% 3.5 mph WSW5.6 kmh WSW 4.6 mph7.4 kmh 30.19 in1022.4 mb - 0.00 in0.0 mm 0.00 in0.0 mm
12:30 PM 82.2°F27.9°C 78.3°F25.7°C 88% 3.5 mph WSW5.6 kmh WSW 4.6 mph7.4 kmh 30.19 in1022.4 mb - 0.00 in0.0 mm 0.00 in0.0 mm
12:25 PM 82.0°F27.8°C 78.7°F25.9°C 90% 3.5 mph WSW5.6 kmh WSW 4.6 mph7.4 kmh 30.36 in1028.1 mb - 0.00 in0.0 mm 0.00 in0.0 mm
12:20 PM 81.5°F27.5°C 78.3°F25.7°C 90% 4.6 mph WSW7.4 kmh WSW 5.8 mph9.3 kmh 30.40 in1029.5 mb - 0.00 in0.0 mm 0.00 in0.0 mm
12:15 PM 81.9°F27.7°C 78.0°F25.6°C 88% 4.6 mph WSW7.4 kmh WSW 5.8 mph9.3 kmh 30.40 in1029.5 mb - 0.00 in0.0 mm 0.00 in0.0 mm
12:10 PM 82.2°F27.9°C 78.3°F25.7°C 88% 3.5 mph WSW5.6 kmh WSW 3.5 mph5.6 kmh 30.68 in1038.9 mb - 0.00 in0.0 mm 0.00 in0.0 mm
12:00 PM 81.0°F27.2°C 77.8°F25.4°C 90% 4.6 mph WSW7.4 kmh WSW 5.8 mph9.3 kmh 30.87 in1045.4 mb - 0.00 in0.0 mm 0.00 in0.0 mm
11:55 AM 80.3°F26.8°C 77.4°F25.2°C 91% 4.6 mph WSW7.4 kmh WSW 5.8 mph9.3 kmh 30.87 in1045.4 mb - 0.00 in0.0 mm 0.00 in0.0 mm
11:50 AM 79.5°F26.4°C 76.6°F24.8°C 91% 3.5 mph WSW5.6 kmh WSW 3.5 mph5.6 kmh 30.90 in1046.4 mb - 0.00 in0.0 mm 0.00 in0.0 mm
11:45 AM 79.9°F26.6°C 77.0°F25.0°C 91% 4.6 mph WSW7.4 kmh WSW 5.8 mph9.3 kmh 31.04 in1051.1 mb - 0.00 in0.0 mm 0.00 in0.0 mm
11:40 AM 79.7°F26.5°C 77.1°F25.1°C 92% 3.5 mph WSW5.6 kmh WSW 4.6 mph7.4 kmh 31.04 in1051.1 mb - 0.00 in0.0 mm 0.00 in0.0 mm
11:35 AM 79.2°F26.2°C 76.7°F24.8°C 92% 3.5 mph WSW5.6 kmh WSW 4.6 mph7.4 kmh 31.14 in1054.5 mb - 0.00 in0.0 mm 0.00 in0.0 mm
11:30 AM 78.8°F26.0°C 76.6°F24.8°C 93% 3.5 mph WSW5.6 kmh WSW 4.6 mph7.4 kmh 31.14 in1054.5 mb - 0.00 in0.0 mm 0.00 in0.0 mm
11:25 AM 78.3°F25.7°C 76.1°F24.5°C 93% 3.5 mph WSW5.6 kmh WSW 3.5 mph5.6 kmh 31.28 in1059.3 mb - 0.00 in0.0 mm 0.00 in0.0 mm
11:20 AM 78.4°F25.8°C 76.2°F24.6°C 93% 4.6 mph WSW7.4 kmh WSW 5.8 mph9.3 kmh 31.28 in1059.3 mb - 0.00 in0.0 mm 0.00 in0.0 mm
11:15 AM 78.6°F25.9°C 76.4°F24.7°C 93% 4.6 mph WSW7.4 kmh WSW 5.8 mph9.3 kmh 31.28 in1059.3 mb - 0.00 in0.0 mm 0.00 in0.0 mm
11:10 AM 78.2°F25.7°C 76.0°F24.4°C 93% 4.6 mph WSW7.4 kmh WSW 4.6 mph7.4 kmh 31.39 in1063.0 mb - 0.00 in0.0 mm 0.00 in0.0 mm
11:00 AM 77.7°F25.4°C 75.2°F24.0°C 92% 4.6 mph WSW7.4 kmh WSW 5.8 mph9.3 kmh 31.46 in1065.4 mb - 0.00 in0.0 mm 0.00 in0.0 mm
10:55 AM 78.1°F25.6°C 75.9°F24.4°C 93% 2.3 mph WSW3.7 kmh WSW 2.3 mph3.7 kmh 31.46 in1065.4 mb - 0.00 in0.0 mm 0.00 in0.0 mm
10:50 AM 77.9°F25.5°C 75.4°F24.1°C 92% 3.5 mph WSW5.6 kmh WSW 4.6 mph7.4 kmh 31.47 in1065.7 mb - 0.00 in0.0 mm 0.00 in0.0 mm
10:45 AM 77.9°F25.5°C 75.4°F24.1°C 92% 2.3 mph WSW3.7 kmh WSW 2.3 mph3.7 kmh 31.55 in1068.4 mb - 0.00 in0.0 mm 0.00 in0.0 mm
10:40 AM 78.1°F25.6°C 75.6°F24.2°C 92% 3.5 mph WSW5.6 kmh WSW 4.6 mph7.4 kmh 31.55 in1068.4 mb - 0.00 in0.0 mm 0.00 in0.0 mm
10:35 AM 78.5°F25.8°C 75.6°F24.2°C 91% 4.6 mph WSW7.4 kmh WSW 4.6 mph7.4 kmh 31.67 in1072.5 mb - 0.00 in0.0 mm 0.00 in0.0 mm
10:30 AM 78.3°F25.7°C 75.4°F24.1°C 91% 4.6 mph WSW7.4 kmh WSW 5.8 mph9.3 kmh 31.67 in1072.5 mb - 0.00 in0.0 mm 0.00 in0.0 mm
10:25 AM 78.3°F25.7°C 75.8°F24.3°C 92% 2.3 mph W3.7 kmh W 3.5 mph5.6 kmh 31.84 in1078.2 mb - 0.00 in0.0 mm 0.00 in0.0 mm
10:20 AM 78.1°F25.6°C 75.3°F24.1°C 91% 4.6 mph WSW7.4 kmh WSW 5.8 mph9.3 kmh 31.84 in1078.2 mb - 0.00 in0.0 mm 0.00 in0.0 mm
10:15 AM 78.3°F25.7°C 75.8°F24.3°C 92% 3.5 mph W5.6 kmh W 4.6 mph7.4 kmh 31.84 in1078.2 mb - 0.00 in0.0 mm 0.00 in0.0 mm
10:10 AM 77.9°F25.5°C 75.1°F23.9°C 91% 3.5 mph WSW5.6 kmh WSW 4.6 mph7.4 kmh 31.85 in1078.6 mb - 0.00 in0.0 mm 0.00 in0.0 mm
10:00 AM 78.2°F25.7°C 75.3°F24.1°C 91% 4.6 mph WSW7.4 kmh WSW 5.8 mph9.3 kmh 31.85 in1078.6 mb - 0.00 in0.0 mm 0.00 in0.0 mm
09:55 AM 78.2°F25.7°C 75.6°F24.2°C 92% 2.3 mph WSW3.7 kmh WSW 3.5 mph5.6 kmh 31.85 in1078.6 mb - 0.00 in0.0 mm 0.00 in0.0 mm
09:50 AM 77.9°F25.5°C 75.0°F23.9°C 91% 3.5 mph WSW5.6 kmh WSW 3.5 mph5.6 kmh 31.85 in1078.6 mb - 0.00 in0.0 mm 0.00 in0.0 mm
09:45 AM 77.7°F25.4°C 74.5°F23.6°C 90% 4.6 mph WSW7.4 kmh WSW 5.8 mph9.3 kmh 31.85 in1078.6 mb - 0.00 in0.0 mm 0.00 in0.0 mm
09:40 AM 77.9°F25.5°C 74.7°F23.7°C 90% 4.6 mph WSW7.4 kmh WSW 4.6 mph7.4 kmh 31.85 in1078.6 mb - 0.00 in0.0 mm 0.00 in0.0 mm
09:35 AM 77.4°F25.2°C 74.9°F23.8°C 92% 2.3 mph W3.7 kmh W 2.3 mph3.7 kmh 31.85 in1078.6 mb - 0.00 in0.0 mm 0.00 in0.0 mm
09:30 AM 76.5°F24.7°C 74.3°F23.5°C 93% 2.3 mph W3.7 kmh W 2.3 mph3.7 kmh 31.85 in1078.6 mb - 0.00 in0.0 mm 0.00 in0.0 mm
09:25 AM 77.0°F25.0°C 74.5°F23.6°C 92% 3.5 mph WSW5.6 kmh WSW 3.5 mph5.6 kmh 31.85 in1078.6 mb - 0.00 in0.0 mm 0.00 in0.0 mm
09:20 AM 76.7°F24.8°C 74.2°F23.4°C 92% 3.5 mph WSW5.6 kmh WSW 5.8 mph9.3 kmh 31.85 in1078.6 mb - 0.00 in0.0 mm 0.00 in0.0 mm
09:15 AM 77.0°F25.0°C 74.5°F23.6°C 92% 2.3 mph W3.7 kmh W 4.6 mph7.4 kmh 31.85 in1078.6 mb - 0.00 in0.0 mm 0.00 in0.0 mm
09:10 AM 76.8°F24.9°C 73.6°F23.1°C 90% 2.3 mph WSW3.7 kmh WSW 3.5 mph5.6 kmh 31.85 in1078.6 mb - 0.00 in0.0 mm 0.00 in0.0 mm
09:00 AM 76.3°F24.6°C 73.8°F23.2°C 92% 2.3 mph W3.7 kmh W 3.5 mph5.6 kmh 31.85 in1078.6 mb - 0.00 in0.0 mm 0.00 in0.0 mm
08:55 AM 76.4°F24.7°C 73.6°F23.1°C 91% 3.5 mph W5.6 kmh W 4.6 mph7.4 kmh 31.85 in1078.6 mb - 0.00 in0.0 mm 0.00 in0.0 mm
08:50 AM 75.2°F24.0°C 73.1°F22.8°C 93% 2.3 mph W3.7 kmh W 3.5 mph5.6 kmh 31.85 in1078.6 mb - 0.00 in0.0 mm 0.00 in0.0 mm
08:45 AM 74.7°F23.7°C 72.6°F22.6°C 93% 2.3 mph WSW3.7 kmh WSW 2.3 mph3.7 kmh 31.85 in1078.6 mb - 0.00 in0.0 mm 0.00 in0.0 mm
08:40 AM 75.2°F24.0°C 72.7°F22.6°C 92% 3.5 mph WSW5.6 kmh WSW 4.6 mph7.4 kmh 31.85 in1078.6 mb - 0.00 in0.0 mm 0.00 in0.0 mm
08:35 AM 74.6°F23.7°C 72.5°F22.5°C 93% 2.3 mph WSW3.7 kmh WSW 4.6 mph7.4 kmh 31.85 in1078.6 mb - 0.00 in0.0 mm 0.00 in0.0 mm
08:30 AM 74.5°F23.6°C 72.3°F22.4°C 93% 1.2 mph W1.9 kmh W 1.2 mph1.9 kmh 31.85 in1078.6 mb - 0.00 in0.0 mm 0.00 in0.0 mm
08:25 AM 74.3°F23.5°C 72.4°F22.4°C 94% 1.2 mph W1.9 kmh W 2.3 mph3.7 kmh 31.85 in1078.6 mb - 0.00 in0.0 mm 0.00 in0.0 mm
08:20 AM 74.1°F23.4°C 71.9°F22.2°C 93% 1.2 mph W1.9 kmh W -- 31.85 in1078.6 mb - 0.00 in0.0 mm 0.00 in0.0 mm
08:15 AM 73.6°F23.1°C 71.7°F22.1°C 94% 2.3 mph W3.7 kmh W 2.3 mph3.7 kmh 31.85 in1078.6 mb - 0.00 in0.0 mm 0.00 in0.0 mm
08:10 AM 73.2°F22.9°C 71.7°F22.1°C 95% 1.2 mph W1.9 kmh W 1.2 mph1.9 kmh 31.85 in1078.6 mb - 0.00 in0.0 mm 0.00 in0.0 mm
08:00 AM 72.7°F22.6°C 71.2°F21.8°C 95% 1.2 mph W1.9 kmh W -- 31.85 in1078.6 mb - 0.00 in0.0 mm 0.00 in0.0 mm
07:55 AM 72.5°F22.5°C 71.0°F21.7°C 95% 2.3 mph W3.7 kmh W 3.5 mph5.6 kmh 31.85 in1078.6 mb - 0.00 in0.0 mm 0.00 in0.0 mm
07:50 AM 72.5°F22.5°C 71.0°F21.7°C 95% 2.3 mph W3.7 kmh W 3.5 mph5.6 kmh 31.85 in1078.6 mb - 0.00 in0.0 mm 0.00 in0.0 mm
07:45 AM 72.3°F22.4°C 70.8°F21.6°C 95% 2.3 mph W3.7 kmh W 3.5 mph5.6 kmh 31.85 in1078.6 mb - 0.00 in0.0 mm 0.00 in0.0 mm
07:40 AM 72.1°F22.3°C 70.9°F21.6°C 96% 2.3 mph W3.7 kmh W 2.3 mph3.7 kmh 31.85 in1078.6 mb - 0.00 in0.0 mm 0.00 in0.0 mm
07:35 AM 71.7°F22.1°C 70.5°F21.4°C 96% 2.3 mph W3.7 kmh W 3.5 mph5.6 kmh 31.85 in1078.6 mb - 0.00 in0.0 mm 0.00 in0.0 mm
07:30 AM 71.4°F21.9°C 70.5°F21.4°C 97% 2.3 mph W3.7 kmh W 2.3 mph3.7 kmh 31.85 in1078.6 mb - 0.00 in0.0 mm 0.00 in0.0 mm
07:25 AM 71.4°F21.9°C 70.5°F21.4°C 97% 2.3 mph W3.7 kmh W 2.3 mph3.7 kmh 31.85 in1078.6 mb - 0.00 in0.0 mm 0.00 in0.0 mm
07:20 AM 71.4°F21.9°C 70.5°F21.4°C 97% 2.3 mph W3.7 kmh W 2.3 mph3.7 kmh 31.85 in1078.6 mb - 0.00 in0.0 mm 0.00 in0.0 mm
07:15 AM 71.3°F21.8°C 70.4°F21.3°C 97% 1.2 mph W1.9 kmh W 2.3 mph3.7 kmh 31.85 in1078.6 mb - 0.00 in0.0 mm 0.00 in0.0 mm
07:10 AM 71.1°F21.7°C 70.2°F21.2°C 97% 2.3 mph W3.7 kmh W 2.3 mph3.7 kmh 31.85 in1078.6 mb - 0.00 in0.0 mm 0.00 in0.0 mm
07:00 AM 71.1°F21.7°C 70.2°F21.2°C 97% 1.2 mph W1.9 kmh W 1.2 mph1.9 kmh 31.85 in1078.6 mb - 0.00 in0.0 mm 0.00 in0.0 mm
06:55 AM 71.1°F21.7°C 70.2°F21.2°C 97% 1.2 mph W1.9 kmh W 2.3 mph3.7 kmh 31.85 in1078.6 mb - 0.00 in0.0 mm 0.00 in0.0 mm
06:50 AM 70.9°F21.6°C 70.3°F21.3°C 98% 1.2 mph W1.9 kmh W 1.2 mph1.9 kmh 31.85 in1078.6 mb - 0.00 in0.0 mm 0.00 in0.0 mm
06:45 AM 70.9°F21.6°C 70.3°F21.3°C 98% 2.3 mph W3.7 kmh W 2.3 mph3.7 kmh 31.85 in1078.6 mb - 0.00 in0.0 mm 0.00 in0.0 mm
06:40 AM 70.9°F21.6°C 70.3°F21.3°C 98% 1.2 mph W1.9 kmh W 1.2 mph1.9 kmh 31.85 in1078.6 mb - 0.00 in0.0 mm 0.00 in0.0 mm
06:35 AM 70.9°F21.6°C 70.3°F21.3°C 98% 1.2 mph W1.9 kmh W 2.3 mph3.7 kmh 31.85 in1078.6 mb - 0.00 in0.0 mm 0.00 in0.0 mm
06:30 AM 70.9°F21.6°C 70.3°F21.3°C 98% 1.2 mph W1.9 kmh W 2.3 mph3.7 kmh 31.85 in1078.6 mb - 0.00 in0.0 mm 0.00 in0.0 mm
06:25 AM 71.0°F21.7°C 70.5°F21.4°C 98% 2.3 mph WSW3.7 kmh WSW 2.3 mph3.7 kmh 31.85 in1078.6 mb - 0.00 in0.0 mm 0.00 in0.0 mm
06:20 AM 71.3°F21.8°C 70.7°F21.5°C 98% 2.3 mph W3.7 kmh W 2.3 mph3.7 kmh 31.85 in1078.6 mb - 0.00 in0.0 mm 0.00 in0.0 mm
06:15 AM 71.3°F21.8°C 71.0°F21.7°C 99% 2.3 mph W3.7 kmh W 2.3 mph3.7 kmh 31.85 in1078.6 mb - 0.00 in0.0 mm 0.00 in0.0 mm
06:10 AM 71.3°F21.8°C 71.0°F21.7°C 99% 2.3 mph W3.7 kmh W 2.3 mph3.7 kmh 31.81 in1077.2 mb - 0.00 in0.0 mm 0.00 in0.0 mm
06:00 AM 71.3°F21.8°C 71.0°F21.7°C 99% 2.3 mph W3.7 kmh W 3.5 mph5.6 kmh 31.81 in1077.2 mb - 0.00 in0.0 mm 0.00 in0.0 mm
05:55 AM 71.4°F21.9°C 71.1°F21.7°C 99% 1.2 mph W1.9 kmh W 2.3 mph3.7 kmh 31.81 in1077.2 mb - 0.00 in0.0 mm 0.00 in0.0 mm
05:50 AM 71.6°F22.0°C 71.3°F21.8°C 99% 2.3 mph W3.7 kmh W 1.2 mph1.9 kmh 31.80 in1076.9 mb - 0.00 in0.0 mm 0.00 in0.0 mm
05:45 AM 71.8°F22.1°C 71.5°F21.9°C 99% 2.3 mph W3.7 kmh W 2.3 mph3.7 kmh 31.79 in1076.5 mb - 0.00 in0.0 mm 0.00 in0.0 mm
05:40 AM 71.8°F22.1°C 71.5°F21.9°C 99% 2.3 mph W3.7 kmh W 1.2 mph1.9 kmh 31.79 in1076.5 mb - 0.00 in0.0 mm 0.00 in0.0 mm
05:35 AM 71.8°F22.1°C 71.5°F21.9°C 99% 1.2 mph W1.9 kmh W 2.3 mph3.7 kmh 31.77 in1075.9 mb - 0.00 in0.0 mm 0.00 in0.0 mm
05:30 AM 71.8°F22.1°C 71.5°F21.9°C 99% 2.3 mph WSW3.7 kmh WSW 2.3 mph3.7 kmh 31.77 in1075.9 mb - 0.00 in0.0 mm 0.00 in0.0 mm
05:25 AM 71.7°F22.1°C 71.4°F21.9°C 99% 2.3 mph W3.7 kmh W 2.3 mph3.7 kmh 31.76 in1075.5 mb - 0.00 in0.0 mm 0.00 in0.0 mm
05:20 AM 71.4°F21.9°C 71.1°F21.7°C 99% 1.2 mph W1.9 kmh W 2.3 mph3.7 kmh 31.76 in1075.5 mb - 0.00 in0.0 mm 0.00 in0.0 mm
05:15 AM 71.4°F21.9°C 71.1°F21.7°C 99% Calm Calm -- 31.76 in1075.5 mb - 0.00 in0.0 mm 0.00 in0.0 mm
05:10 AM 71.4°F21.9°C 71.1°F21.7°C 99% 1.2 mph W1.9 kmh W 1.2 mph1.9 kmh 31.76 in1075.5 mb - 0.00 in0.0 mm 0.00 in0.0 mm
05:00 AM 71.1°F21.7°C 70.8°F21.6°C 99% Calm Calm -- 31.71 in1073.8 mb - 0.00 in0.0 mm 0.00 in0.0 mm
04:55 AM 71.1°F21.7°C 70.8°F21.6°C 99% 1.2 mph W1.9 kmh W 2.3 mph3.7 kmh 31.71 in1073.8 mb - 0.00 in0.0 mm 0.00 in0.0 mm
04:50 AM 70.9°F21.6°C 70.6°F21.4°C 99% Calm Calm -- 31.70 in1073.5 mb - 0.00 in0.0 mm 0.00 in0.0 mm
04:45 AM 70.9°F21.6°C 70.6°F21.4°C 99% Calm Calm -- 31.66 in1072.1 mb - 0.00 in0.0 mm 0.00 in0.0 mm
04:40 AM 70.9°F21.6°C 70.6°F21.4°C 99% 1.2 mph W1.9 kmh W 1.2 mph1.9 kmh 31.66 in1072.1 mb - 0.00 in0.0 mm 0.00 in0.0 mm
04:35 AM 70.9°F21.6°C 70.6°F21.4°C 99% 2.3 mph W3.7 kmh W 2.3 mph3.7 kmh 31.64 in1071.5 mb - 0.00 in0.0 mm 0.00 in0.0 mm
04:30 AM 70.9°F21.6°C 70.6°F21.4°C 99% 1.2 mph W1.9 kmh W 2.3 mph3.7 kmh 31.64 in1071.5 mb - 0.00 in0.0 mm 0.00 in0.0 mm
04:25 AM 70.7°F21.5°C 70.4°F21.3°C 99% 2.3 mph W3.7 kmh W 2.3 mph3.7 kmh 31.59 in1069.8 mb - 0.00 in0.0 mm 0.00 in0.0 mm
04:20 AM 70.6°F21.4°C 70.3°F21.3°C 99% 1.2 mph W1.9 kmh W 1.2 mph1.9 kmh 31.59 in1069.8 mb - 0.00 in0.0 mm 0.00 in0.0 mm
04:15 AM 70.5°F21.4°C 70.2°F21.2°C 99% 1.2 mph W1.9 kmh W 1.2 mph1.9 kmh 31.59 in1069.8 mb - 0.00 in0.0 mm 0.00 in0.0 mm
04:10 AM 70.5°F21.4°C 70.2°F21.2°C 99% 1.2 mph W1.9 kmh W 2.3 mph3.7 kmh 31.55 in1068.4 mb - 0.00 in0.0 mm 0.00 in0.0 mm
04:00 AM 70.4°F21.3°C 70.1°F21.2°C 99% 1.2 mph W1.9 kmh W 1.2 mph1.9 kmh 31.48 in1066.0 mb - 0.00 in0.0 mm 0.00 in0.0 mm
03:55 AM 70.4°F21.3°C 70.1°F21.2°C 99% 1.2 mph W1.9 kmh W 1.2 mph1.9 kmh 31.48 in1066.0 mb - 0.00 in0.0 mm 0.00 in0.0 mm
03:50 AM 70.4°F21.3°C 70.1°F21.2°C 99% 2.3 mph W3.7 kmh W 2.3 mph3.7 kmh 31.46 in1065.4 mb - 0.00 in0.0 mm 0.00 in0.0 mm
03:45 AM 70.4°F21.3°C 70.1°F21.2°C 99% 2.3 mph W3.7 kmh W 2.3 mph3.7 kmh 31.45 in1065.0 mb - 0.00 in0.0 mm 0.00 in0.0 mm
03:40 AM 70.4°F21.3°C 70.1°F21.2°C 99% 1.2 mph W1.9 kmh W 1.2 mph1.9 kmh 31.45 in1065.0 mb - 0.00 in0.0 mm 0.00 in0.0 mm
03:35 AM 70.4°F21.3°C 70.1°F21.2°C 99% 1.2 mph W1.9 kmh W 1.2 mph1.9 kmh 31.45 in1065.0 mb - 0.00 in0.0 mm 0.00 in0.0 mm
03:30 AM 70.4°F21.3°C 70.1°F21.2°C 99% 1.2 mph W1.9 kmh W 1.2 mph1.9 kmh 31.45 in1065.0 mb - 0.00 in0.0 mm 0.00 in0.0 mm
03:25 AM 70.4°F21.3°C 70.1°F21.2°C 99% 2.3 mph W3.7 kmh W 2.3 mph3.7 kmh 31.34 in1061.3 mb - 0.00 in0.0 mm 0.00 in0.0 mm
03:20 AM 70.2°F21.2°C 69.9°F21.1°C 99% 2.3 mph W3.7 kmh W 2.3 mph3.7 kmh 31.34 in1061.3 mb - 0.00 in0.0 mm 0.00 in0.0 mm
03:15 AM 69.8°F21.0°C 69.5°F20.8°C 99% 2.3 mph W3.7 kmh W 2.3 mph3.7 kmh 31.34 in1061.3 mb - 0.00 in0.0 mm 0.00 in0.0 mm
03:10 AM 69.8°F21.0°C 69.5°F20.8°C 99% 2.3 mph W3.7 kmh W 2.3 mph3.7 kmh 31.25 in1058.2 mb - 0.00 in0.0 mm 0.00 in0.0 mm
03:00 AM 69.6°F20.9°C 69.3°F20.7°C 99% 2.3 mph W3.7 kmh W 2.3 mph3.7 kmh 31.15 in1054.9 mb - 0.00 in0.0 mm 0.00 in0.0 mm
02:55 AM 69.5°F20.8°C 69.2°F20.7°C 99% 2.3 mph W3.7 kmh W 2.3 mph3.7 kmh 31.15 in1054.9 mb - 0.00 in0.0 mm 0.00 in0.0 mm
02:50 AM 69.5°F20.8°C 69.2°F20.7°C 99% 2.3 mph W3.7 kmh W 2.3 mph3.7 kmh 31.13 in1054.2 mb - 0.00 in0.0 mm 0.00 in0.0 mm
02:45 AM 69.6°F20.9°C 69.3°F20.7°C 99% 2.3 mph W3.7 kmh W 2.3 mph3.7 kmh 31.03 in1050.8 mb - 0.00 in0.0 mm 0.00 in0.0 mm
02:40 AM 69.6°F20.9°C 69.3°F20.7°C 99% 2.3 mph W3.7 kmh W 2.3 mph3.7 kmh 31.03 in1050.8 mb - 0.00 in0.0 mm 0.00 in0.0 mm
02:35 AM 69.8°F21.0°C 69.5°F20.8°C 99% 2.3 mph W3.7 kmh W 2.3 mph3.7 kmh 30.94 in1047.7 mb - 0.00 in0.0 mm 0.00 in0.0 mm
02:30 AM 69.8°F21.0°C 69.5°F20.8°C 99% 1.2 mph W1.9 kmh W 1.2 mph1.9 kmh 30.94 in1047.7 mb - 0.00 in0.0 mm 0.00 in0.0 mm
02:25 AM 69.8°F21.0°C 69.5°F20.8°C 99% 1.2 mph W1.9 kmh W 2.3 mph3.7 kmh 30.89 in1046.1 mb - 0.00 in0.0 mm 0.00 in0.0 mm
02:20 AM 70.0°F21.1°C 69.7°F20.9°C 99% 1.2 mph W1.9 kmh W 1.2 mph1.9 kmh 30.87 in1045.4 mb - 0.00 in0.0 mm 0.00 in0.0 mm
02:15 AM 70.0°F21.1°C 69.7°F20.9°C 99% Calm Calm 1.2 mph1.9 kmh 30.87 in1045.4 mb - 0.00 in0.0 mm 0.00 in0.0 mm
02:10 AM 70.2°F21.2°C 69.9°F21.1°C 99% Calm Calm -- 30.76 in1041.7 mb - 0.00 in0.0 mm 0.00 in0.0 mm
02:00 AM 70.2°F21.2°C 69.9°F21.1°C 99% 2.3 mph W3.7 kmh W 2.3 mph3.7 kmh 30.71 in1040.0 mb - 0.00 in0.0 mm 0.00 in0.0 mm
01:55 AM 70.4°F21.3°C 70.1°F21.2°C 99% 2.3 mph W3.7 kmh W 2.3 mph3.7 kmh 30.71 in1040.0 mb - 0.00 in0.0 mm 0.00 in0.0 mm
01:50 AM 70.5°F21.4°C 70.2°F21.2°C 99% 2.3 mph W3.7 kmh W 2.3 mph3.7 kmh 30.66 in1038.3 mb - 0.00 in0.0 mm 0.00 in0.0 mm
01:45 AM 70.7°F21.5°C 70.4°F21.3°C 99% 2.3 mph W3.7 kmh W 2.3 mph3.7 kmh 30.61 in1036.6 mb - 0.00 in0.0 mm 0.00 in0.0 mm
01:40 AM 70.9°F21.6°C 70.6°F21.4°C 99% 2.3 mph W3.7 kmh W 2.3 mph3.7 kmh 30.61 in1036.6 mb - 0.00 in0.0 mm 0.00 in0.0 mm
01:35 AM 70.9°F21.6°C 70.6°F21.4°C 99% 2.3 mph W3.7 kmh W 2.3 mph3.7 kmh 30.50 in1032.8 mb - 0.00 in0.0 mm 0.00 in0.0 mm
01:30 AM 71.1°F21.7°C 70.8°F21.6°C 99% 1.2 mph W1.9 kmh W 1.2 mph1.9 kmh 30.50 in1032.8 mb - 0.00 in0.0 mm 0.00 in0.0 mm
01:25 AM 71.3°F21.8°C 71.0°F21.7°C 99% 1.2 mph W1.9 kmh W 2.3 mph3.7 kmh 30.43 in1030.5 mb - 0.00 in0.0 mm 0.00 in0.0 mm
01:20 AM 71.4°F21.9°C 71.1°F21.7°C 99% 1.2 mph W1.9 kmh W 2.3 mph3.7 kmh 30.43 in1030.5 mb - 0.00 in0.0 mm 0.00 in0.0 mm
01:15 AM 71.6°F22.0°C 71.3°F21.8°C 99% 2.3 mph W3.7 kmh W 2.3 mph3.7 kmh 30.43 in1030.5 mb - 0.00 in0.0 mm 0.00 in0.0 mm
01:10 AM 71.9°F22.2°C 71.6°F22.0°C 99% 1.2 mph W1.9 kmh W 1.2 mph1.9 kmh 30.40 in1029.5 mb - 0.00 in0.0 mm 0.00 in0.0 mm
01:00 AM 72.3°F22.4°C 72.0°F22.2°C 99% 2.3 mph W3.7 kmh W 1.2 mph1.9 kmh 30.37 in1028.4 mb - 0.00 in0.0 mm 0.00 in0.0 mm
12:55 AM 72.3°F22.4°C 72.0°F22.2°C 99% 2.3 mph W3.7 kmh W 2.3 mph3.7 kmh 30.37 in1028.4 mb - 0.00 in0.0 mm 0.00 in0.0 mm
12:50 AM 72.3°F22.4°C 72.0°F22.2°C 99% 1.2 mph W1.9 kmh W 1.2 mph1.9 kmh 30.37 in1028.4 mb - 0.00 in0.0 mm 0.00 in0.0 mm
12:45 AM 72.3°F22.4°C 72.0°F22.2°C 99% 2.3 mph W3.7 kmh W 2.3 mph3.7 kmh 30.32 in1026.8 mb - 0.00 in0.0 mm 0.00 in0.0 mm
12:40 AM 72.3°F22.4°C 72.0°F22.2°C 99% 2.3 mph WSW3.7 kmh WSW 2.3 mph3.7 kmh 30.32 in1026.8 mb - 0.00 in0.0 mm 0.00 in0.0 mm
12:35 AM 72.3°F22.4°C 72.0°F22.2°C 99% 2.3 mph W3.7 kmh W 2.3 mph3.7 kmh 30.26 in1024.7 mb - 0.00 in0.0 mm 0.00 in0.0 mm
12:30 AM 72.2°F22.3°C 71.9°F22.2°C 99% 2.3 mph W3.7 kmh W 2.3 mph3.7 kmh 30.26 in1024.7 mb - 0.00 in0.0 mm 0.00 in0.0 mm
12:25 AM 72.2°F22.3°C 71.9°F22.2°C 99% 2.3 mph W3.7 kmh W 1.2 mph1.9 kmh 30.22 in1023.4 mb - 0.00 in0.0 mm 0.00 in0.0 mm
12:20 AM 72.2°F22.3°C 71.9°F22.2°C 99% 1.2 mph W1.9 kmh W 2.3 mph3.7 kmh 30.20 in1022.7 mb - 0.00 in0.0 mm 0.00 in0.0 mm
12:15 AM 72.2°F22.3°C 71.9°F22.2°C 99% 2.3 mph W3.7 kmh W 2.3 mph3.7 kmh 30.20 in1022.7 mb - 0.00 in0.0 mm 0.00 in0.0 mm
12:10 AM 72.2°F22.3°C 71.9°F22.2°C 99% 2.3 mph W3.7 kmh W 1.2 mph1.9 kmh 30.17 in1021.7 mb - 0.00 in0.0 mm 0.00 in0.0 mm
12:00 AM 72.3°F22.4°C 72.0°F22.2°C 99% 2.3 mph W3.7 kmh W 4.6 mph7.4 kmh 30.12 in1020.0 mb - 0.00 in0.0 mm 0.00 in0.0 mm